createdAt,value
2022-08-01T00:01:07.282Z,97.40
2022-08-01T00:42:14.746Z,98.60
2022-08-01T00:48:44.776Z,98.90
2022-08-01T00:51:41.385Z,99.00
2022-08-01T00:54:13.251Z,99.00
2022-08-01T00:56:49.778Z,99.10
2022-08-01T00:59:20.519Z,99.20
2022-08-01T01:02:39.661Z,99.30
2022-08-01T01:05:41.729Z,99.40
2022-08-01T01:08:57.109Z,99.60
2022-08-01T01:12:13.542Z,99.70
2022-08-01T01:18:31.676Z,99.90
2022-08-01T01:21:22.430Z,99.90
2022-08-01T01:24:34.993Z,99.90
2022-08-01T01:27:46.425Z,99.90
2022-08-01T01:30:17.008Z,99.90
2022-08-01T01:32:49.585Z,99.90
2022-08-01T01:35:46.877Z,99.90
2022-08-01T01:38:24.691Z,99.90
2022-08-01T01:40:58.857Z,99.90
2022-08-01T01:43:46.696Z,99.90
2022-08-01T01:46:26.943Z,99.90
2022-08-01T01:49:18.605Z,99.90
2022-08-01T01:52:02.114Z,99.90
2022-08-01T01:54:36.683Z,99.90
2022-08-01T01:57:15.873Z,99.90
2022-08-01T01:59:51.399Z,99.90
2022-08-01T02:02:51.715Z,99.90
2022-08-01T02:06:02.673Z,99.90
2022-08-01T02:08:32.615Z,99.90
2022-08-01T02:11:23.319Z,99.90
2022-08-01T02:14:18.235Z,99.90
2022-08-01T02:17:49.060Z,99.90
2022-08-01T02:20:33.412Z,99.90
2022-08-01T02:26:38.980Z,99.90
2022-08-01T02:29:12.581Z,99.90
2022-08-01T02:31:53.103Z,99.90
2022-08-01T02:34:33.197Z,99.90
2022-08-01T02:37:08.620Z,99.90
2022-08-01T02:39:52.925Z,99.90
2022-08-01T02:42:30.484Z,99.90
2022-08-01T02:45:16.130Z,99.90
2022-08-01T02:47:53.559Z,99.90
2022-08-01T02:50:30.747Z,99.90
2022-08-01T02:53:05.778Z,99.90
2022-08-01T02:55:38.351Z,99.90
2022-08-01T03:02:10.534Z,99.90
2022-08-01T03:04:56.902Z,99.90
2022-08-01T03:07:48.546Z,99.90
2022-08-01T03:10:18.179Z,99.90
2022-08-01T03:13:03.959Z,99.90
2022-08-01T03:16:05.208Z,99.90
2022-08-01T03:18:46.078Z,99.90
2022-08-01T03:21:55.723Z,99.90
2022-08-01T03:24:43.811Z,99.90
2022-08-01T03:28:45.359Z,99.90
2022-08-01T03:38:16.728Z,99.90
2022-08-01T03:41:20.014Z,99.90
2022-08-01T03:51:37.639Z,99.90
2022-08-01T03:54:06.427Z,99.90
2022-08-01T04:34:08.083Z,99.90
2022-08-01T04:36:38.395Z,99.90
2022-08-01T04:39:07.139Z,99.90
2022-08-01T04:41:38.940Z,99.90
2022-08-01T04:44:06.791Z,99.90
2022-08-01T04:46:36.093Z,99.90
2022-08-01T04:49:26.486Z,99.90
2022-08-01T04:52:02.666Z,99.90
2022-08-01T04:54:56.938Z,99.90
2022-08-01T04:57:27.533Z,99.90
2022-08-01T04:59:57.960Z,99.90
2022-08-01T05:02:28.530Z,99.90
2022-08-01T05:04:58.811Z,99.90
2022-08-01T05:07:25.900Z,99.90
2022-08-01T05:09:53.051Z,99.90
2022-08-01T05:12:25.634Z,99.90
2022-08-01T05:14:55.385Z,99.90
2022-08-01T05:17:26.374Z,99.90
2022-08-01T05:20:16.872Z,99.90
2022-08-01T05:22:44.634Z,99.70
2022-08-01T05:25:58.970Z,99.50
2022-08-01T05:28:29.536Z,99.30
2022-08-01T05:30:59.125Z,99.00
2022-08-01T05:33:26.821Z,98.70
2022-08-01T05:35:54.037Z,98.20
2022-08-01T05:38:21.404Z,97.80
2022-08-01T05:40:48.763Z,97.60
2022-08-01T05:43:18.266Z,97.30
2022-08-01T05:45:47.125Z,97.10
2022-08-01T05:48:14.289Z,96.70
2022-08-01T05:50:41.541Z,96.60
2022-08-01T05:53:08.633Z,96.40
2022-08-01T05:55:37.104Z,96.10
2022-08-01T05:58:12.628Z,96.00
2022-08-01T06:00:43.101Z,95.90
2022-08-01T06:03:10.906Z,96.00
2022-08-01T06:05:38.510Z,96.00
2022-08-01T06:08:08.933Z,95.90
2022-08-01T06:10:36.044Z,95.90
2022-08-01T06:13:04.364Z,95.70
2022-08-01T06:15:32.608Z,95.40
2022-08-01T06:18:10.341Z,95.30
2022-08-01T06:20:37.460Z,95.30
2022-08-01T06:23:12.146Z,94.80
2022-08-01T06:25:55.936Z,94.70
2022-08-01T06:28:23.943Z,94.60
2022-08-01T06:30:51.451Z,94.40
2022-08-01T06:33:41.003Z,94.30
2022-08-01T06:43:49.270Z,93.10
2022-08-01T06:46:19.555Z,93.00
2022-08-01T06:51:57.214Z,92.60
2022-08-01T06:55:12.308Z,92.60
2022-08-01T06:58:02.749Z,92.50
2022-08-01T07:03:27.750Z,91.80
2022-08-01T07:06:56.524Z,91.80
2022-08-01T07:09:44.687Z,91.70
2022-08-01T07:12:13.695Z,91.70
2022-08-01T07:14:51.093Z,91.70
2022-08-01T07:17:21.864Z,91.20
2022-08-01T07:19:49.526Z,91.00
2022-08-01T07:22:23.153Z,90.90
2022-08-01T07:27:45.930Z,90.30
2022-08-01T07:40:22.219Z,87.30
2022-08-01T07:43:17.921Z,87.00
2022-08-01T07:45:48.531Z,86.80
2022-08-01T07:48:15.958Z,87.10
2022-08-01T07:53:59.640Z,86.00
2022-08-01T07:56:42.539Z,84.70
2022-08-01T07:59:26.148Z,84.40
2022-08-01T08:02:01.525Z,84.20
2022-08-01T08:04:54.135Z,83.00
2022-08-01T08:07:23.216Z,82.90
2022-08-01T08:09:51.099Z,82.90
2022-08-01T08:12:28.847Z,81.60
2022-08-01T08:15:02.671Z,81.30
2022-08-01T08:17:35.958Z,80.50
2022-08-01T08:20:09.030Z,80.40
2022-08-01T08:22:36.847Z,80.70
2022-08-01T08:25:04.362Z,80.20
2022-08-01T08:31:25.527Z,79.40
2022-08-01T08:34:12.046Z,78.90
2022-08-01T08:36:47.966Z,78.50
2022-08-01T08:39:19.766Z,77.80
2022-08-01T08:42:10.297Z,77.20
2022-08-01T08:44:44.330Z,75.90
2022-08-01T08:47:20.220Z,75.10
2022-08-01T08:49:49.778Z,74.50
2022-08-01T08:52:19.879Z,74.00
2022-08-01T08:54:48.226Z,73.50
2022-08-01T08:57:16.239Z,71.80
2022-08-01T08:59:46.427Z,70.40
2022-08-01T09:02:14.062Z,68.50
2022-08-01T09:04:41.916Z,67.00
2022-08-01T09:07:09.942Z,65.50
2022-08-01T09:09:41.743Z,65.90
2022-08-01T09:12:09.612Z,64.50
2022-08-01T09:14:46.443Z,63.00
2022-08-01T09:17:14.049Z,61.10
2022-08-01T09:19:49.938Z,59.00
2022-08-01T09:22:22.470Z,57.40
2022-08-01T09:25:10.102Z,56.60
2022-08-01T09:27:44.386Z,56.20
2022-08-01T09:30:23.733Z,54.40
2022-08-01T09:33:06.279Z,53.80
2022-08-01T09:35:43.714Z,53.90
2022-08-01T09:38:25.141Z,53.70
2022-08-01T09:40:59.257Z,53.10
2022-08-01T09:43:29.146Z,52.60
2022-08-01T09:45:57.966Z,53.20
2022-08-01T09:48:28.663Z,51.10
2022-08-01T09:51:04.348Z,50.60
2022-08-01T09:53:52.178Z,50.60
2022-08-01T09:56:25.136Z,48.40
2022-08-01T09:59:01.395Z,48.00
2022-08-01T10:01:56.062Z,47.40
2022-08-01T10:04:25.343Z,47.30
2022-08-01T10:07:04.610Z,46.90
2022-08-01T10:09:36.055Z,46.10
2022-08-01T10:12:08.828Z,46.00
2022-08-01T10:14:37.148Z,45.50
2022-08-01T10:17:07.326Z,44.30
2022-08-01T10:19:38.997Z,44.90
2022-08-01T10:22:14.894Z,45.00
2022-08-01T10:24:45.305Z,46.30
2022-08-01T10:27:13.987Z,45.50
2022-08-01T10:30:05.492Z,45.20
2022-08-01T10:32:36.906Z,44.70
2022-08-01T10:35:14.785Z,44.80
2022-08-01T10:37:52.070Z,44.30
2022-08-01T10:40:30.564Z,42.70
2022-08-01T10:42:58.825Z,42.80
2022-08-01T10:45:30.589Z,41.70
2022-08-01T10:48:07.070Z,41.20
2022-08-01T10:50:39.578Z,40.90
2022-08-01T10:53:16.087Z,40.50
2022-08-01T10:56:05.111Z,42.10
2022-08-01T10:58:44.364Z,43.20
2022-08-01T11:01:27.797Z,42.00
2022-08-01T11:04:01.049Z,40.90
2022-08-01T11:06:33.856Z,40.10
2022-08-01T11:09:37.235Z,40.10
2022-08-01T11:12:13.628Z,39.80
2022-08-01T11:14:59.453Z,39.60
2022-08-01T11:17:41.876Z,40.00
2022-08-01T11:20:14.535Z,39.80
2022-08-01T11:22:59.989Z,39.80
2022-08-01T11:26:03.276Z,39.10
2022-08-01T11:28:15.408Z,38.90
2022-08-01T11:30:43.331Z,39.40
2022-08-01T11:33:12.160Z,40.60
2022-08-01T11:35:59.328Z,41.20
2022-08-01T11:38:29.209Z,41.40
2022-08-01T11:41:36.915Z,41.70
2022-08-01T11:44:14.086Z,41.90
2022-08-01T11:46:51.320Z,41.00
2022-08-01T11:49:49.104Z,39.40
2022-08-01T11:52:24.356Z,38.60
2022-08-01T11:55:05.871Z,37.90
2022-08-01T11:57:38.319Z,36.30
2022-08-01T12:00:17.382Z,36.50
2022-08-01T12:02:46.347Z,35.70
2022-08-01T12:05:21.681Z,36.40
2022-08-01T12:07:52.989Z,37.60
2022-08-01T12:10:21.800Z,39.20
2022-08-01T12:12:51.650Z,40.00
2022-08-01T12:15:19.823Z,39.50
2022-08-01T12:17:57.564Z,38.70
2022-08-01T12:20:30.581Z,37.80
2022-08-01T12:22:59.785Z,37.00
2022-08-01T12:25:26.640Z,36.30
2022-08-01T12:27:56.649Z,36.00
2022-08-01T12:30:25.061Z,34.80
2022-08-01T12:32:53.685Z,36.60
2022-08-01T12:35:25.749Z,38.00
2022-08-01T12:37:54.935Z,39.40
2022-08-01T12:40:27.446Z,40.10
2022-08-01T12:42:59.140Z,41.00
2022-08-01T12:45:27.526Z,40.40
2022-08-01T12:47:56.015Z,38.00
2022-08-01T12:50:26.548Z,38.30
2022-08-01T12:52:53.520Z,37.50
2022-08-01T12:55:34.217Z,36.80
2022-08-01T12:58:20.307Z,35.80
2022-08-01T13:00:49.923Z,35.30
2022-08-01T13:03:18.682Z,36.30
2022-08-01T13:05:55.354Z,37.20
2022-08-01T13:08:35.186Z,38.80
2022-08-01T13:11:18.169Z,40.20
2022-08-01T13:13:51.826Z,41.40
2022-08-01T13:16:30.672Z,42.90
2022-08-01T13:19:06.677Z,44.10
2022-08-01T13:21:52.270Z,45.20
2022-08-01T13:24:29.570Z,46.00
2022-08-01T13:27:05.027Z,46.60
2022-08-01T13:29:42.484Z,47.40
2022-08-01T13:32:28.916Z,48.60
2022-08-01T13:35:05.965Z,50.00
2022-08-01T13:37:33.422Z,51.20
2022-08-01T13:40:10.698Z,50.80
2022-08-01T13:42:37.956Z,49.50
2022-08-01T13:45:14.755Z,49.40
2022-08-01T13:48:03.123Z,48.10
2022-08-01T13:50:30.230Z,47.60
2022-08-01T13:52:58.086Z,47.60
2022-08-01T13:55:25.241Z,47.60
2022-08-01T13:57:52.610Z,48.00
2022-08-01T14:00:19.801Z,48.20
2022-08-01T14:03:11.917Z,48.50
2022-08-01T14:05:39.101Z,48.80
2022-08-01T14:08:09.850Z,49.10
2022-08-01T14:10:38.414Z,49.40
2022-08-01T14:13:06.799Z,49.60
2022-08-01T14:15:42.129Z,50.20
2022-08-01T14:18:11.371Z,50.90
2022-08-01T14:20:39.576Z,51.60
2022-08-01T14:23:09.134Z,51.90
2022-08-01T14:26:05.267Z,52.50
2022-08-01T14:28:29.462Z,52.80
2022-08-01T14:30:58.286Z,53.20
2022-08-01T14:33:26.411Z,53.50
2022-08-01T14:36:01.487Z,53.80
2022-08-01T14:38:34.302Z,54.40
2022-08-01T14:41:04.670Z,55.10
2022-08-01T14:43:34.369Z,56.10
2022-08-01T14:46:57.379Z,56.50
2022-08-01T14:49:25.850Z,57.20
2022-08-01T14:51:56.273Z,57.40
2022-08-01T14:54:29.064Z,57.70
2022-08-01T14:57:02.375Z,58.40
2022-08-01T14:59:29.891Z,58.50
2022-08-01T15:02:06.466Z,58.80
2022-08-01T15:04:34.261Z,59.20
2022-08-01T15:07:01.421Z,59.80
2022-08-01T15:09:28.593Z,59.90
2022-08-01T15:15:11.770Z,61.10
2022-08-01T15:17:39.141Z,61.40
2022-08-01T15:20:10.695Z,61.80
2022-08-01T15:22:40.510Z,64.20
2022-08-01T15:25:12.829Z,68.10
2022-08-01T15:27:43.265Z,71.40
2022-08-01T15:38:21.412Z,86.30
2022-08-01T15:41:19.350Z,92.90
2022-08-01T15:44:33.296Z,97.50
2022-08-01T15:47:34.542Z,99.90
2022-08-01T15:53:35.000Z,99.90
2022-08-01T16:00:07.964Z,99.90
2022-08-01T16:09:09.371Z,99.90
2022-08-01T16:19:29.240Z,99.90
2022-08-01T16:24:43.329Z,99.90
2022-08-01T16:27:27.325Z,99.90
2022-08-01T16:30:01.186Z,99.90
2022-08-01T16:35:46.261Z,99.90
2022-08-01T16:38:22.106Z,98.70
2022-08-01T16:40:52.366Z,97.40
2022-08-01T16:43:23.265Z,97.40
2022-08-01T16:49:40.980Z,96.50
2022-08-01T16:52:10.775Z,96.40
2022-08-01T16:54:38.504Z,96.30
2022-08-01T17:00:39.557Z,96.30
2022-08-01T17:03:17.306Z,96.70
2022-08-01T17:05:54.349Z,96.90
2022-08-01T17:08:21.601Z,96.40
2022-08-01T17:10:48.921Z,96.30
2022-08-01T17:13:16.592Z,96.40
2022-08-01T17:15:57.587Z,96.50
2022-08-01T17:18:50.590Z,96.50
2022-08-01T17:21:44.828Z,96.40
2022-08-01T17:24:16.609Z,96.60
2022-08-01T17:26:56.124Z,96.30
2022-08-01T17:29:27.710Z,96.40
2022-08-01T17:31:59.471Z,96.40
2022-08-01T17:34:37.679Z,96.20
2022-08-01T17:37:05.005Z,95.80
2022-08-01T17:39:39.525Z,95.60
2022-08-01T17:42:12.653Z,95.60
2022-08-01T17:44:41.702Z,95.90
2022-08-01T17:47:28.839Z,96.00
2022-08-01T17:50:04.205Z,95.90
2022-08-01T17:52:35.288Z,95.30
2022-08-01T17:55:03.834Z,95.50
2022-08-01T17:57:31.190Z,95.60
2022-08-01T17:59:58.750Z,96.40
2022-08-01T18:03:03.984Z,96.30
2022-08-01T18:05:58.144Z,96.30
2022-08-01T18:08:34.477Z,96.20
2022-08-01T18:11:01.796Z,96.30
2022-08-01T18:13:33.901Z,96.40
2022-08-01T18:16:01.328Z,96.70
2022-08-01T18:21:32.593Z,97.10
2022-08-01T18:24:02.717Z,97.50
2022-08-01T18:26:33.362Z,97.60
2022-08-01T18:29:44.480Z,97.70
2022-08-01T18:32:10.432Z,98.00
2022-08-01T18:34:51.531Z,98.10
2022-08-01T18:37:21.344Z,98.10
2022-08-01T18:39:51.566Z,97.70
2022-08-01T18:42:21.961Z,97.70
2022-08-01T18:44:49.567Z,98.10
2022-08-01T18:47:41.180Z,97.80
2022-08-01T18:50:35.368Z,97.70
2022-08-01T18:53:07.636Z,97.90
2022-08-01T18:56:05.814Z,98.30
2022-08-01T18:59:04.895Z,98.90
2022-08-01T19:01:30.688Z,99.10
2022-08-01T19:04:06.414Z,99.60
2022-08-01T19:06:34.096Z,99.90
2022-08-01T19:09:20.539Z,99.90
2022-08-01T19:11:48.820Z,99.90
2022-08-01T19:14:16.227Z,99.90
2022-08-01T19:16:46.514Z,99.90
2022-08-01T19:19:27.937Z,99.90
2022-08-01T19:22:01.265Z,99.90
2022-08-01T19:24:31.862Z,99.90
2022-08-01T19:27:05.091Z,99.90
2022-08-01T19:29:40.643Z,99.90
2022-08-01T19:32:31.448Z,99.90
2022-08-01T19:35:16.604Z,99.90
2022-08-01T19:38:04.174Z,99.90
2022-08-01T19:40:37.673Z,99.90
2022-08-01T19:43:12.888Z,99.90
2022-08-01T19:45:43.402Z,99.90
2022-08-01T19:48:13.242Z,99.90
2022-08-01T19:50:45.083Z,99.90
2022-08-01T19:53:13.910Z,99.90
2022-08-01T19:55:46.385Z,99.90
2022-08-01T19:58:27.782Z,99.90
2022-08-01T20:04:03.887Z,99.90
2022-08-01T20:06:33.872Z,99.90
2022-08-01T20:09:03.120Z,99.90
2022-08-01T20:11:30.371Z,99.90
2022-08-01T20:13:58.626Z,99.90
2022-08-01T21:35:16.494Z,99.90
2022-08-01T21:40:40.377Z,99.90
2022-08-01T21:43:11.621Z,99.90
2022-08-01T21:45:58.301Z,99.90
2022-08-01T21:49:09.974Z,99.90
2022-08-01T21:59:19.100Z,99.90
2022-08-01T22:02:54.653Z,99.90
2022-08-01T22:05:42.573Z,99.90
2022-08-01T22:08:24.061Z,99.90
2022-08-01T23:40:20.477Z,99.90
2022-08-01T23:41:15.692Z,99.90
